Terminal Aerodrome Forecast
Issued by NWS

Home | Current Version | Previous Version | Text Only | Print | Product List | Glossary On
Versions: 1 2 3 4 5 6 7 8 9 10 11 12
000
FTUS46 KMTR 031137
TAFSJC
TAF
KSJC 031137Z 0312/0412 11004KT P6SM SKC
     FM031600 VRB04KT P6SM FEW015 SCT200
     FM032000 30010KT P6SM BKN200
     FM040500 30005KT P6SM FEW015 SCT200
     FM040900 14004KT P6SM SCT014=

USA.gov is the U.S. government's official web portal to all federal, state and local government web resources and services.